Portada
METAR-TAF:

METAR-TAF

Aeropuertos :

Aeropuerto de Zaragoza

Zaragoza, España

latitud: 41-40N, longitud: 001-01W, altitud: 263 m

Observación

El informe se hizo hace 21 horas y 33 minutos, a las 00:00 UTC
Viento 13 kt del oeste
Temperatura 22°C
Humedad 65%
Presión 1018 hPa
Visibilidad 10 km o más
sin nubes por debajo de 1500 m y sin presencia de cumulonimbus.

METAR: LEZG 210000Z 28013KT CAVOK 22/15 Q1018

Hora: 23:33 (21:33 UTC)

Pronóstico

El informe se hizo hace 22 horas y 33 minutos, a las 23:00 UTC
Pronóstico válido del 21 a las 00 UTC al 21 a las 24 UTC
Viento 10 kt del oeste-noroeste
Visibilidad 10 km o más
Escasas nubes a una altura de 5000 ft
Evolucionando progresivamente
del 21 a las 12 UTC al 21 a las 14 UTC
Viento 5 kt del norte
Evolucionando progresivamente
del 21 a las 18 UTC al 21 a las 21 UTC
Viento 6 kt del este-sureste

TAF: LEZG 202300Z 2100/2124 30010KT 9999 FEW050 TX35/2114Z TN19/2106Z BECMG 2112/2114 36005KT BECMG 2118/2121 11006KT

Observaciones y pronósticos meteorológicos de más de 4000 aeropuertos (mensajes METAR y TAF).

Los puntos amarillos y rojos representan las estaciones disponibles.

Ponga el ratón en el punto deseado para ver el nombre de la estación.

Haga clic para ver las observaciones y los pronósticos meteorológicos.

Para cambiar el mapa : haga clic en los botones verdes con una cruz de color negro para hacer un zoom, en el botón verde con un guión para alejar o en las flechas verdes para mapas adyacentes.


METAR-TAF: